Карточка аэропорта URRP

Внимание!
Информация на этой странице в стадии наполнения.
Если вы не увидели какой-то информации, или заметили неточность - пожалуйста сообщите нам!
Спасибо!
Команда RU-STAFF
Название аэропортаПлатов
Название аэропорта (англ.)Platov
Превышение282 ft. (86 m.)
Координаты47°29.634', 39°55.482'
Высота перехода3500 ft
Эшелон переходаFL50 (QNH >= 996); FL60 (QNH < 996)
Коды ответчика1001-1017
Зона ОрВДРостов-на-Дону РПИ (URRV)
Данные METARURRP 220630Z 16005MPS 9999 SCT///CB 25/17 Q1008 R05/190055 TEMPO VRB17MPS 0500 +TSRA SQ SCT003 BKN030CB RMK QFE751/1002
Проноз погоды (TAF)URRP 220455Z 2206/2306 33003G12MPS 9999 SCT030CB TX35/2211Z TN22/2302Z TEMPO 2206/2218 6000 -TSRA SCT016 BKN020CB BECMG 2213/2215 06003G12MPS TEMPO 2303/2306 6000 -SHRA SCT016 BKN020CB PROB40 TEMPO 2303/2306 -TSRA
NOTAMshow/hide NOTAM
AWOS   TABLE

Информация о ВПП

ВПП Длина ВПП (м.) Покрытие Курс ВПП Частота ILS
053900Цементобетон46111.5
233900Цементобетон226110.9

Диспетчерские позиции

Позывной Наименование органа УВД Частота
URRP_R_APPПлатов - Круг121.2
URRP_GNDПлатов - руление119.0
URRP_TWRПлатов-Вышка119.7
URRP_DELПлатов-деливери127.1
URRP_APPПлатов-подход128.2



Спутниковое изображение